Terminal Aerodrome Forecast
Issued by NWS Portland, ME

Home | Current Version | Previous Version | Text Only | Print | Product List | Glossary On
Versions: 1 2 3 4 5 6 7 8 9 10 11 12 13 14 15 16 17 18 19 20
684
FTUS41 KGYX 140901 AAB
TAFPWM
TAF AMD
KPWM 140901Z 1409/1506 29012KT P6SM SCT050 SCT090
      TEMPO 1409/1411 3SM -SHSN BKN050 OVC090
     FM141300 30012KT P6SM SCT050
     FM150000 VRB03KT P6SM SKC=

USA.gov is the U.S. government's official web portal to all federal, state and local government web resources and services.